sensor_id;sensor_type;location;lat;lon;timestamp;temperature;humidity
40323;DHT22;26030;51.164;17.100;2023-03-11T00:02:15;21.60;63.00
40323;DHT22;26030;51.164;17.100;2023-03-11T00:07:20;21.80;62.30
40323;DHT22;26030;51.164;17.100;2023-03-11T00:12:24;21.70;62.00
40323;DHT22;26030;51.164;17.100;2023-03-11T00:17:28;21.80;62.50
40323;DHT22;26030;51.164;17.100;2023-03-11T00:22:32;21.80;62.50
40323;DHT22;26030;51.164;17.100;2023-03-11T00:27:36;21.90;62.40
40323;DHT22;26030;51.164;17.100;2023-03-11T00:32:40;21.80;62.60
40323;DHT22;26030;51.164;17.100;2023-03-11T00:37:45;21.70;62.70
40323;DHT22;26030;51.164;17.100;2023-03-11T00:42:50;21.80;62.30
40323;DHT22;26030;51.164;17.100;2023-03-11T00:47:54;22.00;61.60
40323;DHT22;26030;51.164;17.100;2023-03-11T00:52:59;22.40;60.90
40323;DHT22;26030;51.164;17.100;2023-03-11T00:58:04;22.60;60.50
40323;DHT22;26030;51.164;17.100;2023-03-11T01:03:28;22.80;60.00
40323;DHT22;26030;51.164;17.100;2023-03-11T01:08:33;22.90;59.70
40323;DHT22;26030;51.164;17.100;2023-03-11T01:13:37;22.90;59.30
40323;DHT22;26030;51.164;17.100;2023-03-11T01:18:43;22.90;59.20
40323;DHT22;26030;51.164;17.100;2023-03-11T01:23:47;23.00;58.80
40323;DHT22;26030;51.164;17.100;2023-03-11T01:28:51;23.10;58.70
40323;DHT22;26030;51.164;17.100;2023-03-11T01:33:54;23.10;58.50
40323;DHT22;26030;51.164;17.100;2023-03-11T01:38:58;23.20;58.50
40323;DHT22;26030;51.164;17.100;2023-03-11T01:44:03;23.20;58.40
40323;DHT22;26030;51.164;17.100;2023-03-11T01:49:11;23.30;58.20
40323;DHT22;26030;51.164;17.100;2023-03-11T01:54:23;23.30;58.10
40323;DHT22;26030;51.164;17.100;2023-03-11T01:59:31;23.30;57.80
40323;DHT22;26030;51.164;17.100;2023-03-11T02:04:40;23.40;57.80
40323;DHT22;26030;51.164;17.100;2023-03-11T02:09:45;23.40;57.70
40323;DHT22;26030;51.164;17.100;2023-03-11T02:14:50;23.40;57.70
40323;DHT22;26030;51.164;17.100;2023-03-11T02:20:18;23.30;57.80
40323;DHT22;26030;51.164;17.100;2023-03-11T02:31:05;23.10;58.10
40323;DHT22;26030;51.164;17.100;2023-03-11T02:36:30;23.20;57.70
40323;DHT22;26030;51.164;17.100;2023-03-11T02:41:39;23.10;57.90
40323;DHT22;26030;51.164;17.100;2023-03-11T02:46:47;23.00;58.10
40323;DHT22;26030;51.164;17.100;2023-03-11T02:51:51;22.90;58.00
40323;DHT22;26030;51.164;17.100;2023-03-11T02:56:56;22.90;58.10
40323;DHT22;26030;51.164;17.100;2023-03-11T03:02:01;22.80;59.20
40323;DHT22;26030;51.164;17.100;2023-03-11T03:07:06;22.70;59.00
40323;DHT22;26030;51.164;17.100;2023-03-11T03:12:12;22.60;59.10
40323;DHT22;26030;51.164;17.100;2023-03-11T03:17:16;22.50;58.80
40323;DHT22;26030;51.164;17.100;2023-03-11T03:22:22;22.50;58.50
40323;DHT22;26030;51.164;17.100;2023-03-11T03:27:30;22.40;59.30
40323;DHT22;26030;51.164;17.100;2023-03-11T03:32:36;22.40;58.90
40323;DHT22;26030;51.164;17.100;2023-03-11T03:37:41;22.30;59.30
40323;DHT22;26030;51.164;17.100;2023-03-11T03:42:45;22.30;58.90
40323;DHT22;26030;51.164;17.100;2023-03-11T03:47:50;22.20;58.80
40323;DHT22;26030;51.164;17.100;2023-03-11T03:52:55;22.10;58.80
40323;DHT22;26030;51.164;17.100;2023-03-11T03:57:59;22.10;58.80
40323;DHT22;26030;51.164;17.100;2023-03-11T04:03:07;22.00;58.60
40323;DHT22;26030;51.164;17.100;2023-03-11T04:08:17;22.00;58.80
40323;DHT22;26030;51.164;17.100;2023-03-11T04:13:21;22.00;58.70
40323;DHT22;26030;51.164;17.100;2023-03-11T04:18:26;22.00;58.70
40323;DHT22;26030;51.164;17.100;2023-03-11T04:23:30;22.00;58.50
40323;DHT22;26030;51.164;17.100;2023-03-11T04:28:34;21.90;58.20
40323;DHT22;26030;51.164;17.100;2023-03-11T04:33:39;21.80;58.30
40323;DHT22;26030;51.164;17.100;2023-03-11T04:38:45;21.90;58.80
40323;DHT22;26030;51.164;17.100;2023-03-11T04:43:50;22.30;58.50
40323;DHT22;26030;51.164;17.100;2023-03-11T04:48:54;22.60;57.40
40323;DHT22;26030;51.164;17.100;2023-03-11T04:53:59;22.90;56.40
40323;DHT22;26030;51.164;17.100;2023-03-11T04:59:04;23.10;55.80
40323;DHT22;26030;51.164;17.100;2023-03-11T05:04:09;23.20;55.80
40323;DHT22;26030;51.164;17.100;2023-03-11T05:09:14;23.30;55.40
40323;DHT22;26030;51.164;17.100;2023-03-11T05:14:19;23.30;55.20
40323;DHT22;26030;51.164;17.100;2023-03-11T05:19:24;23.30;55.20
40323;DHT22;26030;51.164;17.100;2023-03-11T05:24:36;23.30;55.20
40323;DHT22;26030;51.164;17.100;2023-03-11T05:29:40;23.30;55.10
40323;DHT22;26030;51.164;17.100;2023-03-11T05:34:47;23.30;55.10
40323;DHT22;26030;51.164;17.100;2023-03-11T05:39:52;23.30;55.00
40323;DHT22;26030;51.164;17.100;2023-03-11T05:44:57;23.30;54.90
40323;DHT22;26030;51.164;17.100;2023-03-11T05:50:02;23.30;54.70
40323;DHT22;26030;51.164;17.100;2023-03-11T05:55:08;23.40;54.60
40323;DHT22;26030;51.164;17.100;2023-03-11T06:00:16;23.40;54.30
40323;DHT22;26030;51.164;17.100;2023-03-11T06:05:24;23.50;54.70
40323;DHT22;26030;51.164;17.100;2023-03-11T06:10:29;23.50;54.60
40323;DHT22;26030;51.164;17.100;2023-03-11T06:15:33;23.40;53.90
40323;DHT22;26030;51.164;17.100;2023-03-11T06:20:39;23.30;54.60
40323;DHT22;26030;51.164;17.100;2023-03-11T06:25:43;23.30;54.40
40323;DHT22;26030;51.164;17.100;2023-03-11T06:30:47;23.10;54.70
40323;DHT22;26030;51.164;17.100;2023-03-11T06:35:58;23.10;54.70
40323;DHT22;26030;51.164;17.100;2023-03-11T06:41:05;23.00;54.80
40323;DHT22;26030;51.164;17.100;2023-03-11T06:46:11;22.90;55.20
40323;DHT22;26030;51.164;17.100;2023-03-11T06:51:19;22.80;55.50
40323;DHT22;26030;51.164;17.100;2023-03-11T06:56:24;22.70;56.20
40323;DHT22;26030;51.164;17.100;2023-03-11T07:01:35;22.60;55.80
40323;DHT22;26030;51.164;17.100;2023-03-11T07:06:41;22.50;55.70
40323;DHT22;26030;51.164;17.100;2023-03-11T07:11:52;22.50;56.10
40323;DHT22;26030;51.164;17.100;2023-03-11T07:17:01;22.50;55.70
40323;DHT22;26030;51.164;17.100;2023-03-11T07:22:17;22.40;55.80
40323;DHT22;26030;51.164;17.100;2023-03-11T07:27:22;22.40;55.80
40323;DHT22;26030;51.164;17.100;2023-03-11T07:32:26;22.30;56.00
40323;DHT22;26030;51.164;17.100;2023-03-11T07:37:30;22.20;56.60
40323;DHT22;26030;51.164;17.100;2023-03-11T07:42:34;22.10;56.40
40323;DHT22;26030;51.164;17.100;2023-03-11T07:47:38;22.10;56.40
40323;DHT22;26030;51.164;17.100;2023-03-11T07:52:42;22.10;56.20
40323;DHT22;26030;51.164;17.100;2023-03-11T07:57:47;22.00;56.60
40323;DHT22;26030;51.164;17.100;2023-03-11T08:02:52;22.00;56.30
40323;DHT22;26030;51.164;17.100;2023-03-11T08:07:56;22.00;56.30
40323;DHT22;26030;51.164;17.100;2023-03-11T08:13:00;21.90;56.10
40323;DHT22;26030;51.164;17.100;2023-03-11T08:18:04;21.90;56.50
40323;DHT22;26030;51.164;17.100;2023-03-11T08:23:08;21.80;56.30
40323;DHT22;26030;51.164;17.100;2023-03-11T08:28:12;21.80;56.50
40323;DHT22;26030;51.164;17.100;2023-03-11T08:33:17;21.90;56.40
40323;DHT22;26030;51.164;17.100;2023-03-11T08:38:21;22.20;55.90
40323;DHT22;26030;51.164;17.100;2023-03-11T08:43:25;22.50;55.10
40323;DHT22;26030;51.164;17.100;2023-03-11T08:48:29;22.70;54.70
40323;DHT22;26030;51.164;17.100;2023-03-11T08:53:33;22.80;54.00
40323;DHT22;26030;51.164;17.100;2023-03-11T08:58:37;23.00;53.80
40323;DHT22;26030;51.164;17.100;2023-03-11T09:03:41;23.00;53.70
40323;DHT22;26030;51.164;17.100;2023-03-11T09:08:47;23.10;53.50
40323;DHT22;26030;51.164;17.100;2023-03-11T09:13:51;23.20;53.20
40323;DHT22;26030;51.164;17.100;2023-03-11T09:18:55;23.30;53.50
40323;DHT22;26030;51.164;17.100;2023-03-11T09:23:59;23.40;52.70
40323;DHT22;26030;51.164;17.100;2023-03-11T09:29:04;23.50;52.40
40323;DHT22;26030;51.164;17.100;2023-03-11T09:34:09;23.60;52.20
40323;DHT22;26030;51.164;17.100;2023-03-11T09:39:18;23.70;52.00
40323;DHT22;26030;51.164;17.100;2023-03-11T09:49:48;23.80;51.70
40323;DHT22;26030;51.164;17.100;2023-03-11T09:55:26;23.90;51.10
40323;DHT22;26030;51.164;17.100;2023-03-11T10:00:51;23.70;51.30
40323;DHT22;26030;51.164;17.100;2023-03-11T10:05:57;23.60;51.30
40323;DHT22;26030;51.164;17.100;2023-03-11T10:11:21;23.40;52.00
40323;DHT22;26030;51.164;17.100;2023-03-11T10:16:32;23.30;52.00
40323;DHT22;26030;51.164;17.100;2023-03-11T10:27:18;23.20;52.20
40323;DHT22;26030;51.164;17.100;2023-03-11T10:32:43;23.10;53.20
40323;DHT22;26030;51.164;17.100;2023-03-11T10:37:52;23.00;53.50
40323;DHT22;26030;51.164;17.100;2023-03-11T10:43:05;23.00;58.80
40323;DHT22;26030;51.164;17.100;2023-03-11T10:48:16;22.90;58.50
40323;DHT22;26030;51.164;17.100;2023-03-11T10:53:21;22.90;57.30
40323;DHT22;26030;51.164;17.100;2023-03-11T10:58:27;22.80;57.80
40323;DHT22;26030;51.164;17.100;2023-03-11T11:03:32;22.70;57.30
40323;DHT22;26030;51.164;17.100;2023-03-11T11:08:37;22.70;57.70
40323;DHT22;26030;51.164;17.100;2023-03-11T11:13:41;22.70;58.30
40323;DHT22;26030;51.164;17.100;2023-03-11T11:19:03;22.70;57.50
40323;DHT22;26030;51.164;17.100;2023-03-11T11:29:15;22.60;57.60
40323;DHT22;26030;51.164;17.100;2023-03-11T11:39:47;22.50;57.40
40323;DHT22;26030;51.164;17.100;2023-03-11T11:44:59;22.40;57.30
40323;DHT22;26030;51.164;17.100;2023-03-11T11:50:12;22.40;57.40
40323;DHT22;26030;51.164;17.100;2023-03-11T11:55:27;22.40;57.60
40323;DHT22;26030;51.164;17.100;2023-03-11T12:00:35;22.40;58.30
40323;DHT22;26030;51.164;17.100;2023-03-11T12:11:06;22.30;57.80
40323;DHT22;26030;51.164;17.100;2023-03-11T12:27:42;22.10;57.30
40323;DHT22;26030;51.164;17.100;2023-03-11T12:32:50;22.10;56.80
40323;DHT22;26030;51.164;17.100;2023-03-11T13:05:22;21.90;56.50
40323;DHT22;26030;51.164;17.100;2023-03-11T13:10:46;21.80;56.60
40323;DHT22;26030;51.164;17.100;2023-03-11T13:15:52;21.70;56.40
40323;DHT22;26030;51.164;17.100;2023-03-11T13:21:00;21.60;56.30
40323;DHT22;26030;51.164;17.100;2023-03-11T13:26:11;21.50;57.10
40323;DHT22;26030;51.164;17.100;2023-03-11T13:43:02;21.40;58.30
40323;DHT22;26030;51.164;17.100;2023-03-11T13:53:29;21.30;58.20
40323;DHT22;26030;51.164;17.100;2023-03-11T13:58:39;21.40;58.10
40323;DHT22;26030;51.164;17.100;2023-03-11T14:03:44;21.30;57.90
40323;DHT22;26030;51.164;17.100;2023-03-11T14:08:54;21.30;58.30
40323;DHT22;26030;51.164;17.100;2023-03-11T14:14:00;21.40;58.40
40323;DHT22;26030;51.164;17.100;2023-03-11T14:19:11;21.30;58.70
40323;DHT22;26030;51.164;17.100;2023-03-11T14:24:38;21.30;58.60
40323;DHT22;26030;51.164;17.100;2023-03-11T14:29:43;21.30;58.30
40323;DHT22;26030;51.164;17.100;2023-03-11T14:34:50;21.20;59.00
40323;DHT22;26030;51.164;17.100;2023-03-11T14:39:55;21.10;59.40
40323;DHT22;26030;51.164;17.100;2023-03-11T14:45:15;21.20;60.50
40323;DHT22;26030;51.164;17.100;2023-03-11T14:50:23;21.20;60.30
40323;DHT22;26030;51.164;17.100;2023-03-11T14:55:31;21.00;60.90
40323;DHT22;26030;51.164;17.100;2023-03-11T15:00:51;21.10;61.10
40323;DHT22;26030;51.164;17.100;2023-03-11T15:06:19;21.60;58.90
40323;DHT22;26030;51.164;17.100;2023-03-11T15:11:28;22.00;58.70
40323;DHT22;26030;51.164;17.100;2023-03-11T15:16:34;22.30;59.30
40323;DHT22;26030;51.164;17.100;2023-03-11T15:21:44;22.40;58.80
40323;DHT22;26030;51.164;17.100;2023-03-11T15:31:58;22.60;58.00
40323;DHT22;26030;51.164;17.100;2023-03-11T15:37:05;22.70;58.00
40323;DHT22;26030;51.164;17.100;2023-03-11T15:42:24;22.70;57.80
40323;DHT22;26030;51.164;17.100;2023-03-11T15:47:29;22.70;57.80
40323;DHT22;26030;51.164;17.100;2023-03-11T15:52:36;22.70;57.80
40323;DHT22;26030;51.164;17.100;2023-03-11T15:57:41;22.90;57.70
40323;DHT22;26030;51.164;17.100;2023-03-11T16:02:45;22.80;57.70
40323;DHT22;26030;51.164;17.100;2023-03-11T16:07:51;22.90;58.10
40323;DHT22;26030;51.164;17.100;2023-03-11T16:12:56;22.90;58.00
40323;DHT22;26030;51.164;17.100;2023-03-11T16:18:04;22.90;57.80
40323;DHT22;26030;51.164;17.100;2023-03-11T16:23:15;23.00;57.40
40323;DHT22;26030;51.164;17.100;2023-03-11T16:28:35;23.00;57.00
40323;DHT22;26030;51.164;17.100;2023-03-11T16:33:41;23.00;56.70
40323;DHT22;26030;51.164;17.100;2023-03-11T16:38:48;23.00;57.50
40323;DHT22;26030;51.164;17.100;2023-03-11T16:43:55;23.00;57.00
40323;DHT22;26030;51.164;17.100;2023-03-11T16:49:00;23.00;56.30
40323;DHT22;26030;51.164;17.100;2023-03-11T16:54:04;23.10;56.10
40323;DHT22;26030;51.164;17.100;2023-03-11T16:59:09;23.10;56.50
40323;DHT22;26030;51.164;17.100;2023-03-11T17:04:13;23.10;56.30
40323;DHT22;26030;51.164;17.100;2023-03-11T17:09:19;23.10;56.30
40323;DHT22;26030;51.164;17.100;2023-03-11T17:14:26;23.10;56.60
40323;DHT22;26030;51.164;17.100;2023-03-11T17:19:33;23.10;56.10
40323;DHT22;26030;51.164;17.100;2023-03-11T17:24:38;23.20;55.90
40323;DHT22;26030;51.164;17.100;2023-03-11T17:29:44;23.30;55.70
40323;DHT22;26030;51.164;17.100;2023-03-11T17:34:49;23.30;55.70
40323;DHT22;26030;51.164;17.100;2023-03-11T17:39:54;23.20;55.40
40323;DHT22;26030;51.164;17.100;2023-03-11T17:45:01;23.30;55.80
40323;DHT22;26030;51.164;17.100;2023-03-11T17:50:07;23.30;55.10
40323;DHT22;26030;51.164;17.100;2023-03-11T17:55:14;23.10;55.60
40323;DHT22;26030;51.164;17.100;2023-03-11T18:00:20;23.00;54.90
40323;DHT22;26030;51.164;17.100;2023-03-11T18:05:26;23.00;55.80
40323;DHT22;26030;51.164;17.100;2023-03-11T18:10:32;22.90;55.70
40323;DHT22;26030;51.164;17.100;2023-03-11T18:15:38;22.90;56.80
40323;DHT22;26030;51.164;17.100;2023-03-11T18:20:44;22.90;58.30
40323;DHT22;26030;51.164;17.100;2023-03-11T18:25:50;22.90;58.70
40323;DHT22;26030;51.164;17.100;2023-03-11T18:31:04;22.80;59.30
40323;DHT22;26030;51.164;17.100;2023-03-11T18:36:11;22.70;60.20
40323;DHT22;26030;51.164;17.100;2023-03-11T18:41:30;22.80;61.10
40323;DHT22;26030;51.164;17.100;2023-03-11T18:46:37;22.70;61.50
40323;DHT22;26030;51.164;17.100;2023-03-11T18:51:46;22.60;63.30
40323;DHT22;26030;51.164;17.100;2023-03-11T18:56:52;22.70;63.00
40323;DHT22;26030;51.164;17.100;2023-03-11T19:02:00;22.70;62.80
40323;DHT22;26030;51.164;17.100;2023-03-11T19:07:06;22.70;63.10
40323;DHT22;26030;51.164;17.100;2023-03-11T19:12:14;22.60;63.50
40323;DHT22;26030;51.164;17.100;2023-03-11T19:17:19;22.60;63.10
40323;DHT22;26030;51.164;17.100;2023-03-11T19:22:25;22.50;63.00
40323;DHT22;26030;51.164;17.100;2023-03-11T19:27:33;22.50;63.60
40323;DHT22;26030;51.164;17.100;2023-03-11T19:32:40;22.40;63.60
40323;DHT22;26030;51.164;17.100;2023-03-11T19:37:47;22.30;63.80
40323;DHT22;26030;51.164;17.100;2023-03-11T19:42:57;22.20;64.20
40323;DHT22;26030;51.164;17.100;2023-03-11T19:48:02;22.20;64.70
40323;DHT22;26030;51.164;17.100;2023-03-11T19:53:10;22.20;64.30
40323;DHT22;26030;51.164;17.100;2023-03-11T19:58:16;22.20;64.00
40323;DHT22;26030;51.164;17.100;2023-03-11T20:03:22;22.10;63.70
40323;DHT22;26030;51.164;17.100;2023-03-11T20:08:28;22.10;63.50
40323;DHT22;26030;51.164;17.100;2023-03-11T20:13:34;22.00;63.60
40323;DHT22;26030;51.164;17.100;2023-03-11T20:18:40;21.90;63.20
40323;DHT22;26030;51.164;17.100;2023-03-11T20:23:47;22.00;62.90
40323;DHT22;26030;51.164;17.100;2023-03-11T20:28:55;21.90;62.80
40323;DHT22;26030;51.164;17.100;2023-03-11T20:34:02;22.00;62.30
40323;DHT22;26030;51.164;17.100;2023-03-11T20:39:08;22.00;62.00
40323;DHT22;26030;51.164;17.100;2023-03-11T20:44:13;21.90;61.80
40323;DHT22;26030;51.164;17.100;2023-03-11T20:49:19;22.00;61.70
40323;DHT22;26030;51.164;17.100;2023-03-11T20:54:26;22.00;61.10
40323;DHT22;26030;51.164;17.100;2023-03-11T20:59:32;21.90;61.30
40323;DHT22;26030;51.164;17.100;2023-03-11T21:04:37;21.90;61.10
40323;DHT22;26030;51.164;17.100;2023-03-11T21:09:45;21.80;60.90
40323;DHT22;26030;51.164;17.100;2023-03-11T21:14:52;21.70;61.40
40323;DHT22;26030;51.164;17.100;2023-03-11T21:19:57;21.60;61.50
40323;DHT22;26030;51.164;17.100;2023-03-11T21:25:03;21.50;61.40
40323;DHT22;26030;51.164;17.100;2023-03-11T21:30:12;21.50;61.40
40323;DHT22;26030;51.164;17.100;2023-03-11T21:35:17;21.40;61.50
40323;DHT22;26030;51.164;17.100;2023-03-11T21:40:21;21.50;62.50
40323;DHT22;26030;51.164;17.100;2023-03-11T21:45:26;21.70;62.60
40323;DHT22;26030;51.164;17.100;2023-03-11T21:50:34;21.70;63.30
40323;DHT22;26030;51.164;17.100;2023-03-11T21:55:39;21.60;63.10
40323;DHT22;26030;51.164;17.100;2023-03-11T22:00:44;21.30;63.40
40323;DHT22;26030;51.164;17.100;2023-03-11T22:05:54;21.30;63.50
40323;DHT22;26030;51.164;17.100;2023-03-11T22:11:02;21.30;63.40
40323;DHT22;26030;51.164;17.100;2023-03-11T22:16:10;21.30;63.30
40323;DHT22;26030;51.164;17.100;2023-03-11T22:21:15;21.30;64.50
40323;DHT22;26030;51.164;17.100;2023-03-11T22:26:21;21.60;63.40
40323;DHT22;26030;51.164;17.100;2023-03-11T22:31:31;22.00;61.90
40323;DHT22;26030;51.164;17.100;2023-03-11T22:36:39;22.30;61.00
40323;DHT22;26030;51.164;17.100;2023-03-11T22:41:47;22.50;60.40
40323;DHT22;26030;51.164;17.100;2023-03-11T22:46:58;22.70;59.50
40323;DHT22;26030;51.164;17.100;2023-03-11T22:52:05;22.90;59.50
40323;DHT22;26030;51.164;17.100;2023-03-11T22:57:14;23.00;58.90
40323;DHT22;26030;51.164;17.100;2023-03-11T23:02:22;22.90;58.70
40323;DHT22;26030;51.164;17.100;2023-03-11T23:07:26;23.00;59.00
40323;DHT22;26030;51.164;17.100;2023-03-11T23:12:30;23.10;58.30
40323;DHT22;26030;51.164;17.100;2023-03-11T23:17:35;23.10;58.10
40323;DHT22;26030;51.164;17.100;2023-03-11T23:22:39;23.10;58.10
40323;DHT22;26030;51.164;17.100;2023-03-11T23:27:44;23.10;58.10
40323;DHT22;26030;51.164;17.100;2023-03-11T23:32:49;23.20;57.80
40323;DHT22;26030;51.164;17.100;2023-03-11T23:37:53;23.10;57.60
40323;DHT22;26030;51.164;17.100;2023-03-11T23:42:57;23.10;57.80
40323;DHT22;26030;51.164;17.100;2023-03-11T23:48:01;23.10;57.60
40323;DHT22;26030;51.164;17.100;2023-03-11T23:53:05;22.90;57.80
40323;DHT22;26030;51.164;17.100;2023-03-11T23:58:09;22.70;58.10
